sensor_id;sensor_type;location;lat;lon;timestamp;P1;durP1;ratioP1;P2;durP2;ratioP2
14847;SDS011;7516;43.570;1.448;2023-07-13T00:00:50;2.80;;;1.90;;
14847;SDS011;7516;43.570;1.448;2023-07-13T00:03:18;3.42;;;2.00;;
14847;SDS011;7516;43.570;1.448;2023-07-13T00:05:46;4.50;;;2.30;;
14847;SDS011;7516;43.570;1.448;2023-07-13T00:08:13;2.63;;;2.10;;
14847;SDS011;7516;43.570;1.448;2023-07-13T00:10:42;3.33;;;2.13;;
14847;SDS011;7516;43.570;1.448;2023-07-13T00:13:11;3.35;;;1.88;;
14847;SDS011;7516;43.570;1.448;2023-07-13T00:15:39;4.88;;;2.20;;
14847;SDS011;7516;43.570;1.448;2023-07-13T00:18:06;3.78;;;2.20;;
14847;SDS011;7516;43.570;1.448;2023-07-13T00:20:33;2.75;;;1.80;;
14847;SDS011;7516;43.570;1.448;2023-07-13T00:23:01;2.60;;;1.80;;
14847;SDS011;7516;43.570;1.448;2023-07-13T00:25:29;2.75;;;2.05;;
14847;SDS011;7516;43.570;1.448;2023-07-13T00:27:58;2.30;;;1.70;;
14847;SDS011;7516;43.570;1.448;2023-07-13T00:30:25;3.22;;;1.80;;
14847;SDS011;7516;43.570;1.448;2023-07-13T00:32:53;2.25;;;1.75;;
14847;SDS011;7516;43.570;1.448;2023-07-13T00:35:20;3.30;;;2.00;;
14847;SDS011;7516;43.570;1.448;2023-07-13T00:37:48;2.15;;;1.80;;
14847;SDS011;7516;43.570;1.448;2023-07-13T00:40:16;4.13;;;2.22;;
14847;SDS011;7516;43.570;1.448;2023-07-13T00:42:44;4.28;;;2.08;;
14847;SDS011;7516;43.570;1.448;2023-07-13T00:48:19;2.13;;;1.73;;
14847;SDS011;7516;43.570;1.448;2023-07-13T00:50:48;2.35;;;2.05;;
14847;SDS011;7516;43.570;1.448;2023-07-13T00:53:17;4.93;;;1.88;;
14847;SDS011;7516;43.570;1.448;2023-07-13T00:55:45;3.25;;;1.50;;
14847;SDS011;7516;43.570;1.448;2023-07-13T00:58:14;2.92;;;1.75;;
14847;SDS011;7516;43.570;1.448;2023-07-13T01:00:42;2.38;;;1.70;;
14847;SDS011;7516;43.570;1.448;2023-07-13T01:03:09;3.72;;;1.75;;
14847;SDS011;7516;43.570;1.448;2023-07-13T01:05:38;2.58;;;1.83;;
14847;SDS011;7516;43.570;1.448;2023-07-13T01:08:06;2.00;;;1.77;;
14847;SDS011;7516;43.570;1.448;2023-07-13T01:10:34;3.05;;;1.85;;
14847;SDS011;7516;43.570;1.448;2023-07-13T01:13:04;2.47;;;1.65;;
14847;SDS011;7516;43.570;1.448;2023-07-13T01:15:33;2.72;;;1.67;;
14847;SDS011;7516;43.570;1.448;2023-07-13T01:18:05;3.05;;;1.85;;
14847;SDS011;7516;43.570;1.448;2023-07-13T01:20:34;3.72;;;1.90;;
14847;SDS011;7516;43.570;1.448;2023-07-13T01:23:05;2.85;;;1.77;;
14847;SDS011;7516;43.570;1.448;2023-07-13T01:25:34;3.60;;;1.88;;
14847;SDS011;7516;43.570;1.448;2023-07-13T01:28:01;2.78;;;1.70;;
14847;SDS011;7516;43.570;1.448;2023-07-13T01:30:29;3.90;;;1.98;;
14847;SDS011;7516;43.570;1.448;2023-07-13T01:32:57;3.17;;;1.60;;
14847;SDS011;7516;43.570;1.448;2023-07-13T01:35:24;4.30;;;1.80;;
14847;SDS011;7516;43.570;1.448;2023-07-13T01:37:52;3.30;;;1.70;;
14847;SDS011;7516;43.570;1.448;2023-07-13T01:40:21;3.38;;;1.48;;
14847;SDS011;7516;43.570;1.448;2023-07-13T01:42:48;3.92;;;1.83;;
14847;SDS011;7516;43.570;1.448;2023-07-13T01:45:16;3.13;;;1.50;;
14847;SDS011;7516;43.570;1.448;2023-07-13T01:47:43;3.40;;;1.65;;
14847;SDS011;7516;43.570;1.448;2023-07-13T01:50:11;2.83;;;1.65;;
14847;SDS011;7516;43.570;1.448;2023-07-13T01:52:38;4.10;;;1.60;;
14847;SDS011;7516;43.570;1.448;2023-07-13T01:55:06;3.65;;;1.60;;
14847;SDS011;7516;43.570;1.448;2023-07-13T01:57:35;4.05;;;1.75;;
14847;SDS011;7516;43.570;1.448;2023-07-13T02:00:03;3.05;;;1.77;;
14847;SDS011;7516;43.570;1.448;2023-07-13T02:02:32;2.85;;;1.70;;
14847;SDS011;7516;43.570;1.448;2023-07-13T02:05:00;3.97;;;1.90;;
14847;SDS011;7516;43.570;1.448;2023-07-13T02:07:27;3.55;;;1.80;;
14847;SDS011;7516;43.570;1.448;2023-07-13T02:09:55;4.55;;;1.85;;
14847;SDS011;7516;43.570;1.448;2023-07-13T02:12:22;3.05;;;1.75;;
14847;SDS011;7516;43.570;1.448;2023-07-13T02:14:51;3.25;;;1.80;;
14847;SDS011;7516;43.570;1.448;2023-07-13T02:17:18;3.88;;;1.90;;
14847;SDS011;7516;43.570;1.448;2023-07-13T02:19:46;4.75;;;1.98;;
14847;SDS011;7516;43.570;1.448;2023-07-13T02:22:13;3.85;;;2.15;;
14847;SDS011;7516;43.570;1.448;2023-07-13T02:24:41;3.35;;;1.70;;
14847;SDS011;7516;43.570;1.448;2023-07-13T02:27:08;4.93;;;1.92;;
14847;SDS011;7516;43.570;1.448;2023-07-13T02:29:36;3.38;;;1.88;;
14847;SDS011;7516;43.570;1.448;2023-07-13T02:32:05;5.43;;;1.80;;
14847;SDS011;7516;43.570;1.448;2023-07-13T02:34:33;4.10;;;1.70;;
14847;SDS011;7516;43.570;1.448;2023-07-13T02:37:01;3.50;;;1.75;;
14847;SDS011;7516;43.570;1.448;2023-07-13T02:39:29;4.90;;;2.00;;
14847;SDS011;7516;43.570;1.448;2023-07-13T02:41:58;3.55;;;1.58;;
14847;SDS011;7516;43.570;1.448;2023-07-13T02:44:26;3.42;;;1.88;;
14847;SDS011;7516;43.570;1.448;2023-07-13T02:46:53;4.53;;;1.80;;
14847;SDS011;7516;43.570;1.448;2023-07-13T02:49:22;6.35;;;1.90;;
14847;SDS011;7516;43.570;1.448;2023-07-13T02:51:50;2.65;;;1.70;;
14847;SDS011;7516;43.570;1.448;2023-07-13T02:54:18;3.78;;;1.58;;
14847;SDS011;7516;43.570;1.448;2023-07-13T02:56:45;4.35;;;1.77;;
14847;SDS011;7516;43.570;1.448;2023-07-13T02:59:13;3.17;;;1.70;;
14847;SDS011;7516;43.570;1.448;2023-07-13T03:01:40;2.97;;;1.55;;
14847;SDS011;7516;43.570;1.448;2023-07-13T03:04:07;3.65;;;1.63;;
14847;SDS011;7516;43.570;1.448;2023-07-13T03:06:36;4.20;;;1.60;;
14847;SDS011;7516;43.570;1.448;2023-07-13T03:09:04;3.33;;;1.55;;
14847;SDS011;7516;43.570;1.448;2023-07-13T03:11:32;4.35;;;1.55;;
14847;SDS011;7516;43.570;1.448;2023-07-13T03:13:59;3.55;;;1.50;;
14847;SDS011;7516;43.570;1.448;2023-07-13T03:16:27;4.53;;;1.48;;
14847;SDS011;7516;43.570;1.448;2023-07-13T03:18:54;6.07;;;1.65;;
14847;SDS011;7516;43.570;1.448;2023-07-13T03:21:22;3.47;;;1.45;;
14847;SDS011;7516;43.570;1.448;2023-07-13T03:23:51;5.60;;;1.70;;
14847;SDS011;7516;43.570;1.448;2023-07-13T03:26:18;5.03;;;1.80;;
14847;SDS011;7516;43.570;1.448;2023-07-13T03:28:46;3.97;;;1.35;;
14847;SDS011;7516;43.570;1.448;2023-07-13T03:31:14;2.28;;;1.55;;
14847;SDS011;7516;43.570;1.448;2023-07-13T03:33:42;3.67;;;1.45;;
14847;SDS011;7516;43.570;1.448;2023-07-13T03:36:12;2.15;;;1.33;;
14847;SDS011;7516;43.570;1.448;2023-07-13T03:38:41;4.07;;;1.60;;
14847;SDS011;7516;43.570;1.448;2023-07-13T03:41:10;3.58;;;1.52;;
14847;SDS011;7516;43.570;1.448;2023-07-13T03:43:37;3.25;;;1.50;;
14847;SDS011;7516;43.570;1.448;2023-07-13T03:46:05;4.05;;;1.55;;
14847;SDS011;7516;43.570;1.448;2023-07-13T03:48:32;3.42;;;1.35;;
14847;SDS011;7516;43.570;1.448;2023-07-13T03:50:59;2.60;;;1.73;;
14847;SDS011;7516;43.570;1.448;2023-07-13T03:53:27;4.50;;;1.70;;
14847;SDS011;7516;43.570;1.448;2023-07-13T03:55:55;3.95;;;1.50;;
14847;SDS011;7516;43.570;1.448;2023-07-13T03:58:24;3.28;;;1.65;;
14847;SDS011;7516;43.570;1.448;2023-07-13T04:00:53;5.03;;;1.58;;
14847;SDS011;7516;43.570;1.448;2023-07-13T04:03:21;5.60;;;1.88;;
14847;SDS011;7516;43.570;1.448;2023-07-13T04:05:48;4.45;;;1.80;;
14847;SDS011;7516;43.570;1.448;2023-07-13T04:08:16;3.22;;;1.50;;
14847;SDS011;7516;43.570;1.448;2023-07-13T04:10:44;6.60;;;1.55;;
14847;SDS011;7516;43.570;1.448;2023-07-13T04:13:12;3.50;;;1.88;;
14847;SDS011;7516;43.570;1.448;2023-07-13T04:15:41;3.35;;;1.50;;
14847;SDS011;7516;43.570;1.448;2023-07-13T04:18:09;2.97;;;1.65;;
14847;SDS011;7516;43.570;1.448;2023-07-13T04:20:36;2.85;;;1.30;;
14847;SDS011;7516;43.570;1.448;2023-07-13T04:23:04;4.20;;;1.52;;
14847;SDS011;7516;43.570;1.448;2023-07-13T04:25:31;4.85;;;1.60;;
14847;SDS011;7516;43.570;1.448;2023-07-13T04:27:58;5.43;;;1.60;;
14847;SDS011;7516;43.570;1.448;2023-07-13T04:30:26;3.65;;;1.48;;
14847;SDS011;7516;43.570;1.448;2023-07-13T04:32:55;3.67;;;1.50;;
14847;SDS011;7516;43.570;1.448;2023-07-13T04:35:22;5.47;;;1.30;;
14847;SDS011;7516;43.570;1.448;2023-07-13T04:37:50;3.63;;;1.50;;
14847;SDS011;7516;43.570;1.448;2023-07-13T04:40:17;3.90;;;1.80;;
14847;SDS011;7516;43.570;1.448;2023-07-13T04:42:45;4.55;;;1.90;;
14847;SDS011;7516;43.570;1.448;2023-07-13T04:45:13;4.53;;;1.40;;
14847;SDS011;7516;43.570;1.448;2023-07-13T04:47:40;3.03;;;1.17;;
14847;SDS011;7516;43.570;1.448;2023-07-13T04:50:09;3.17;;;1.33;;
14847;SDS011;7516;43.570;1.448;2023-07-13T04:52:40;3.42;;;1.60;;
14847;SDS011;7516;43.570;1.448;2023-07-13T04:55:08;5.97;;;2.00;;
14847;SDS011;7516;43.570;1.448;2023-07-13T04:57:35;5.22;;;1.67;;
14847;SDS011;7516;43.570;1.448;2023-07-13T05:00:03;2.58;;;1.38;;
14847;SDS011;7516;43.570;1.448;2023-07-13T05:02:32;4.07;;;1.60;;
14847;SDS011;7516;43.570;1.448;2023-07-13T05:05:00;2.88;;;1.30;;
14847;SDS011;7516;43.570;1.448;2023-07-13T05:07:30;4.72;;;1.40;;
14847;SDS011;7516;43.570;1.448;2023-07-13T05:09:58;3.15;;;1.40;;
14847;SDS011;7516;43.570;1.448;2023-07-13T05:12:24;1.63;;;1.30;;
14847;SDS011;7516;43.570;1.448;2023-07-13T05:14:52;3.38;;;1.20;;
14847;SDS011;7516;43.570;1.448;2023-07-13T05:17:19;3.03;;;1.23;;
14847;SDS011;7516;43.570;1.448;2023-07-13T05:19:47;5.97;;;1.30;;
14847;SDS011;7516;43.570;1.448;2023-07-13T05:22:14;3.85;;;1.25;;
14847;SDS011;7516;43.570;1.448;2023-07-13T05:24:43;3.72;;;1.15;;
14847;SDS011;7516;43.570;1.448;2023-07-13T05:27:11;3.42;;;1.30;;
14847;SDS011;7516;43.570;1.448;2023-07-13T05:29:38;3.67;;;1.08;;
14847;SDS011;7516;43.570;1.448;2023-07-13T05:32:06;2.92;;;1.30;;
14847;SDS011;7516;43.570;1.448;2023-07-13T05:34:33;2.80;;;1.10;;
14847;SDS011;7516;43.570;1.448;2023-07-13T05:37:01;4.80;;;1.30;;
14847;SDS011;7516;43.570;1.448;2023-07-13T05:39:28;8.15;;;1.27;;
14847;SDS011;7516;43.570;1.448;2023-07-13T05:41:57;4.47;;;1.52;;
14847;SDS011;7516;43.570;1.448;2023-07-13T05:44:25;2.40;;;1.10;;
14847;SDS011;7516;43.570;1.448;2023-07-13T05:46:52;6.10;;;1.40;;
14847;SDS011;7516;43.570;1.448;2023-07-13T05:49:21;3.20;;;1.30;;
14847;SDS011;7516;43.570;1.448;2023-07-13T05:51:49;4.22;;;1.23;;
14847;SDS011;7516;43.570;1.448;2023-07-13T05:54:16;3.00;;;1.25;;
14847;SDS011;7516;43.570;1.448;2023-07-13T05:56:44;2.65;;;1.10;;
14847;SDS011;7516;43.570;1.448;2023-07-13T05:59:13;2.25;;;0.98;;
14847;SDS011;7516;43.570;1.448;2023-07-13T06:01:40;2.53;;;1.10;;
14847;SDS011;7516;43.570;1.448;2023-07-13T06:04:08;2.90;;;1.27;;
14847;SDS011;7516;43.570;1.448;2023-07-13T06:06:35;2.78;;;1.25;;
14847;SDS011;7516;43.570;1.448;2023-07-13T06:09:03;2.40;;;1.20;;
14847;SDS011;7516;43.570;1.448;2023-07-13T06:11:30;2.92;;;1.10;;
14847;SDS011;7516;43.570;1.448;2023-07-13T06:13:58;3.65;;;1.20;;
14847;SDS011;7516;43.570;1.448;2023-07-13T06:16:27;5.25;;;1.67;;
14847;SDS011;7516;43.570;1.448;2023-07-13T06:18:54;4.05;;;1.27;;
14847;SDS011;7516;43.570;1.448;2023-07-13T06:21:22;3.50;;;1.55;;
14847;SDS011;7516;43.570;1.448;2023-07-13T06:23:50;4.13;;;1.42;;
14847;SDS011;7516;43.570;1.448;2023-07-13T06:26:19;3.38;;;1.10;;
14847;SDS011;7516;43.570;1.448;2023-07-13T06:28:49;4.43;;;1.55;;
14847;SDS011;7516;43.570;1.448;2023-07-13T06:31:16;4.00;;;1.38;;
14847;SDS011;7516;43.570;1.448;2023-07-13T06:33:45;3.25;;;1.15;;
14847;SDS011;7516;43.570;1.448;2023-07-13T06:36:13;3.63;;;1.08;;
14847;SDS011;7516;43.570;1.448;2023-07-13T06:38:40;4.60;;;1.10;;
14847;SDS011;7516;43.570;1.448;2023-07-13T06:41:08;4.65;;;1.30;;
14847;SDS011;7516;43.570;1.448;2023-07-13T06:43:35;3.30;;;1.00;;
14847;SDS011;7516;43.570;1.448;2023-07-13T06:46:03;6.03;;;1.70;;
14847;SDS011;7516;43.570;1.448;2023-07-13T06:48:30;3.78;;;1.25;;
14847;SDS011;7516;43.570;1.448;2023-07-13T06:50:59;2.13;;;1.20;;
14847;SDS011;7516;43.570;1.448;2023-07-13T06:53:27;3.15;;;1.20;;
14847;SDS011;7516;43.570;1.448;2023-07-13T06:55:55;5.65;;;1.23;;
14847;SDS011;7516;43.570;1.448;2023-07-13T06:58:22;3.78;;;1.30;;
14847;SDS011;7516;43.570;1.448;2023-07-13T07:00:50;4.75;;;1.50;;
14847;SDS011;7516;43.570;1.448;2023-07-13T07:03:18;4.15;;;1.30;;
14847;SDS011;7516;43.570;1.448;2023-07-13T07:05:45;5.32;;;1.33;;
14847;SDS011;7516;43.570;1.448;2023-07-13T07:08:14;3.53;;;1.27;;
14847;SDS011;7516;43.570;1.448;2023-07-13T07:10:42;2.97;;;1.10;;
14847;SDS011;7516;43.570;1.448;2023-07-13T07:13:10;3.72;;;1.17;;
14847;SDS011;7516;43.570;1.448;2023-07-13T07:15:38;7.00;;;1.50;;
14847;SDS011;7516;43.570;1.448;2023-07-13T07:18:05;3.55;;;1.30;;
14847;SDS011;7516;43.570;1.448;2023-07-13T07:20:33;3.70;;;1.63;;
14847;SDS011;7516;43.570;1.448;2023-07-13T07:23:00;3.55;;;1.45;;
14847;SDS011;7516;43.570;1.448;2023-07-13T07:25:29;3.92;;;1.40;;
14847;SDS011;7516;43.570;1.448;2023-07-13T07:27:57;3.40;;;1.10;;
14847;SDS011;7516;43.570;1.448;2023-07-13T07:30:25;5.10;;;1.45;;
14847;SDS011;7516;43.570;1.448;2023-07-13T07:32:53;2.72;;;1.00;;
14847;SDS011;7516;43.570;1.448;2023-07-13T07:35:20;2.70;;;1.15;;
14847;SDS011;7516;43.570;1.448;2023-07-13T07:37:48;2.00;;;0.90;;
14847;SDS011;7516;43.570;1.448;2023-07-13T07:40:15;2.85;;;1.20;;
14847;SDS011;7516;43.570;1.448;2023-07-13T07:42:44;3.58;;;1.17;;
14847;SDS011;7516;43.570;1.448;2023-07-13T07:45:11;2.70;;;0.90;;
14847;SDS011;7516;43.570;1.448;2023-07-13T07:47:39;2.17;;;1.00;;
14847;SDS011;7516;43.570;1.448;2023-07-13T07:50:06;3.17;;;1.08;;
14847;SDS011;7516;43.570;1.448;2023-07-13T07:52:34;3.58;;;1.20;;
14847;SDS011;7516;43.570;1.448;2023-07-13T07:55:03;4.03;;;1.20;;
14847;SDS011;7516;43.570;1.448;2023-07-13T07:57:31;2.40;;;0.90;;
14847;SDS011;7516;43.570;1.448;2023-07-13T08:00:00;2.63;;;1.00;;
14847;SDS011;7516;43.570;1.448;2023-07-13T08:02:28;3.05;;;1.10;;
14847;SDS011;7516;43.570;1.448;2023-07-13T08:04:55;2.60;;;1.10;;
14847;SDS011;7516;43.570;1.448;2023-07-13T08:07:23;2.33;;;0.80;;
14847;SDS011;7516;43.570;1.448;2023-07-13T08:09:51;3.80;;;1.17;;
14847;SDS011;7516;43.570;1.448;2023-07-13T08:12:19;2.20;;;0.95;;
14847;SDS011;7516;43.570;1.448;2023-07-13T08:14:49;5.95;;;1.33;;
14847;SDS011;7516;43.570;1.448;2023-07-13T08:17:20;2.33;;;1.00;;
14847;SDS011;7516;43.570;1.448;2023-07-13T08:19:48;3.50;;;1.30;;
14847;SDS011;7516;43.570;1.448;2023-07-13T08:22:15;2.90;;;0.85;;
14847;SDS011;7516;43.570;1.448;2023-07-13T08:24:43;2.45;;;1.00;;
14847;SDS011;7516;43.570;1.448;2023-07-13T08:27:10;4.57;;;1.33;;
14847;SDS011;7516;43.570;1.448;2023-07-13T08:29:38;2.67;;;0.88;;
14847;SDS011;7516;43.570;1.448;2023-07-13T08:32:06;2.50;;;0.90;;
14847;SDS011;7516;43.570;1.448;2023-07-13T08:34:37;2.45;;;0.90;;
14847;SDS011;7516;43.570;1.448;2023-07-13T08:37:04;2.85;;;0.82;;
14847;SDS011;7516;43.570;1.448;2023-07-13T08:39:32;2.47;;;1.00;;
14847;SDS011;7516;43.570;1.448;2023-07-13T08:42:01;4.05;;;1.08;;
14847;SDS011;7516;43.570;1.448;2023-07-13T08:44:36;2.25;;;0.80;;
14847;SDS011;7516;43.570;1.448;2023-07-13T08:47:08;1.67;;;0.80;;
14847;SDS011;7516;43.570;1.448;2023-07-13T08:49:38;2.63;;;0.80;;
14847;SDS011;7516;43.570;1.448;2023-07-13T08:52:07;2.25;;;0.82;;
14847;SDS011;7516;43.570;1.448;2023-07-13T08:54:40;2.50;;;0.88;;
14847;SDS011;7516;43.570;1.448;2023-07-13T08:57:11;2.58;;;1.02;;
14847;SDS011;7516;43.570;1.448;2023-07-13T08:59:40;2.20;;;0.73;;
14847;SDS011;7516;43.570;1.448;2023-07-13T09:02:17;2.15;;;0.70;;
14847;SDS011;7516;43.570;1.448;2023-07-13T09:04:53;2.38;;;0.77;;
14847;SDS011;7516;43.570;1.448;2023-07-13T09:07:26;3.17;;;1.00;;
14847;SDS011;7516;43.570;1.448;2023-07-13T09:10:02;2.90;;;0.90;;
14847;SDS011;7516;43.570;1.448;2023-07-13T09:12:35;3.13;;;1.02;;
14847;SDS011;7516;43.570;1.448;2023-07-13T09:15:20;2.95;;;0.82;;
14847;SDS011;7516;43.570;1.448;2023-07-13T09:17:50;2.20;;;0.90;;
14847;SDS011;7516;43.570;1.448;2023-07-13T09:20:23;2.15;;;1.10;;
14847;SDS011;7516;43.570;1.448;2023-07-13T09:22:53;2.10;;;0.90;;
14847;SDS011;7516;43.570;1.448;2023-07-13T09:25:24;2.42;;;0.90;;
14847;SDS011;7516;43.570;1.448;2023-07-13T09:27:57;2.97;;;1.10;;
14847;SDS011;7516;43.570;1.448;2023-07-13T09:30:30;3.08;;;1.17;;
14847;SDS011;7516;43.570;1.448;2023-07-13T09:33:00;1.75;;;0.80;;
14847;SDS011;7516;43.570;1.448;2023-07-13T09:35:30;2.88;;;0.98;;
14847;SDS011;7516;43.570;1.448;2023-07-13T09:37:59;2.85;;;1.08;;
14847;SDS011;7516;43.570;1.448;2023-07-13T09:40:38;1.70;;;0.98;;
14847;SDS011;7516;43.570;1.448;2023-07-13T09:43:10;2.05;;;0.98;;
14847;SDS011;7516;43.570;1.448;2023-07-13T09:45:40;3.25;;;0.90;;
14847;SDS011;7516;43.570;1.448;2023-07-13T09:48:10;2.35;;;0.90;;
14847;SDS011;7516;43.570;1.448;2023-07-13T09:50:41;2.17;;;1.17;;
14847;SDS011;7516;43.570;1.448;2023-07-13T09:53:13;2.38;;;0.88;;
14847;SDS011;7516;43.570;1.448;2023-07-13T09:55:42;3.13;;;0.80;;
14847;SDS011;7516;43.570;1.448;2023-07-13T09:58:11;2.10;;;1.17;;
14847;SDS011;7516;43.570;1.448;2023-07-13T10:00:40;1.45;;;0.80;;
14847;SDS011;7516;43.570;1.448;2023-07-13T10:03:17;2.90;;;1.00;;
14847;SDS011;7516;43.570;1.448;2023-07-13T10:05:47;3.58;;;0.80;;
14847;SDS011;7516;43.570;1.448;2023-07-13T10:08:26;1.38;;;0.80;;
14847;SDS011;7516;43.570;1.448;2023-07-13T10:10:58;1.35;;;0.80;;
14847;SDS011;7516;43.570;1.448;2023-07-13T10:13:32;3.10;;;1.00;;
14847;SDS011;7516;43.570;1.448;2023-07-13T10:16:03;1.80;;;0.82;;
14847;SDS011;7516;43.570;1.448;2023-07-13T10:18:33;3.03;;;1.10;;
14847;SDS011;7516;43.570;1.448;2023-07-13T10:21:11;2.05;;;0.90;;
14847;SDS011;7516;43.570;1.448;2023-07-13T10:23:40;3.00;;;0.90;;
14847;SDS011;7516;43.570;1.448;2023-07-13T10:26:09;2.35;;;1.08;;
14847;SDS011;7516;43.570;1.448;2023-07-13T10:28:41;3.35;;;1.10;;
14847;SDS011;7516;43.570;1.448;2023-07-13T10:31:10;3.10;;;0.82;;
14847;SDS011;7516;43.570;1.448;2023-07-13T10:33:39;2.75;;;0.80;;
14847;SDS011;7516;43.570;1.448;2023-07-13T10:36:12;2.42;;;0.98;;
14847;SDS011;7516;43.570;1.448;2023-07-13T10:38:42;2.05;;;0.77;;
14847;SDS011;7516;43.570;1.448;2023-07-13T10:41:11;3.50;;;1.33;;
14847;SDS011;7516;43.570;1.448;2023-07-13T10:43:44;2.53;;;1.10;;
14847;SDS011;7516;43.570;1.448;2023-07-13T10:46:15;2.03;;;1.20;;
14847;SDS011;7516;43.570;1.448;2023-07-13T10:48:43;5.13;;;0.95;;
14847;SDS011;7516;43.570;1.448;2023-07-13T10:51:16;2.28;;;1.05;;
14847;SDS011;7516;43.570;1.448;2023-07-13T10:53:46;2.78;;;1.05;;
14847;SDS011;7516;43.570;1.448;2023-07-13T10:56:22;3.75;;;1.55;;
14847;SDS011;7516;43.570;1.448;2023-07-13T10:59:01;2.67;;;1.00;;
14847;SDS011;7516;43.570;1.448;2023-07-13T11:01:39;4.82;;;1.00;;
14847;SDS011;7516;43.570;1.448;2023-07-13T11:04:08;1.30;;;0.80;;
14847;SDS011;7516;43.570;1.448;2023-07-13T11:06:41;2.35;;;1.20;;
14847;SDS011;7516;43.570;1.448;2023-07-13T11:09:30;1.55;;;1.00;;
14847;SDS011;7516;43.570;1.448;2023-07-13T11:12:01;1.85;;;0.90;;
14847;SDS011;7516;43.570;1.448;2023-07-13T11:14:35;2.65;;;1.00;;
14847;SDS011;7516;43.570;1.448;2023-07-13T11:19:51;3.55;;;1.02;;
14847;SDS011;7516;43.570;1.448;2023-07-13T11:22:24;4.18;;;1.25;;
14847;SDS011;7516;43.570;1.448;2023-07-13T11:27:52;1.45;;;1.20;;
14847;SDS011;7516;43.570;1.448;2023-07-13T11:30:34;2.80;;;0.95;;
14847;SDS011;7516;43.570;1.448;2023-07-13T11:33:15;1.92;;;1.08;;
14847;SDS011;7516;43.570;1.448;2023-07-13T11:35:45;2.28;;;1.10;;
14847;SDS011;7516;43.570;1.448;2023-07-13T11:38:20;2.13;;;1.10;;
14847;SDS011;7516;43.570;1.448;2023-07-13T11:40:50;3.30;;;1.10;;
14847;SDS011;7516;43.570;1.448;2023-07-13T11:43:20;2.47;;;1.13;;
14847;SDS011;7516;43.570;1.448;2023-07-13T11:45:49;2.67;;;1.08;;
14847;SDS011;7516;43.570;1.448;2023-07-13T11:48:21;1.38;;;1.00;;
14847;SDS011;7516;43.570;1.448;2023-07-13T11:50:55;5.05;;;1.27;;
14847;SDS011;7516;43.570;1.448;2023-07-13T11:53:28;2.20;;;1.00;;
14847;SDS011;7516;43.570;1.448;2023-07-13T11:55:56;3.85;;;1.30;;
14847;SDS011;7516;43.570;1.448;2023-07-13T11:58:25;2.08;;;1.17;;
14847;SDS011;7516;43.570;1.448;2023-07-13T12:00:55;3.70;;;1.25;;
14847;SDS011;7516;43.570;1.448;2023-07-13T12:03:26;2.40;;;1.10;;
14847;SDS011;7516;43.570;1.448;2023-07-13T12:05:56;4.05;;;1.35;;
14847;SDS011;7516;43.570;1.448;2023-07-13T12:08:26;2.10;;;1.05;;
14847;SDS011;7516;43.570;1.448;2023-07-13T12:10:58;1.45;;;1.25;;
14847;SDS011;7516;43.570;1.448;2023-07-13T12:13:34;1.90;;;1.10;;
14847;SDS011;7516;43.570;1.448;2023-07-13T12:16:02;2.88;;;1.20;;
14847;SDS011;7516;43.570;1.448;2023-07-13T12:18:37;3.78;;;1.30;;
14847;SDS011;7516;43.570;1.448;2023-07-13T12:21:09;2.20;;;1.20;;
14847;SDS011;7516;43.570;1.448;2023-07-13T12:23:43;4.32;;;1.40;;
14847;SDS011;7516;43.570;1.448;2023-07-13T12:26:11;4.85;;;1.63;;
14847;SDS011;7516;43.570;1.448;2023-07-13T12:28:43;2.83;;;1.40;;
14847;SDS011;7516;43.570;1.448;2023-07-13T12:34:00;2.55;;;1.30;;
14847;SDS011;7516;43.570;1.448;2023-07-13T12:36:29;2.17;;;1.08;;
14847;SDS011;7516;43.570;1.448;2023-07-13T12:39:03;2.17;;;1.23;;
14847;SDS011;7516;43.570;1.448;2023-07-13T12:41:38;4.03;;;1.50;;
14847;SDS011;7516;43.570;1.448;2023-07-13T12:44:08;1.63;;;1.00;;
14847;SDS011;7516;43.570;1.448;2023-07-13T12:46:48;3.33;;;1.38;;
14847;SDS011;7516;43.570;1.448;2023-07-13T12:49:28;3.45;;;1.20;;
14847;SDS011;7516;43.570;1.448;2023-07-13T12:52:00;2.00;;;0.90;;
14847;SDS011;7516;43.570;1.448;2023-07-13T12:54:30;3.50;;;1.10;;
14847;SDS011;7516;43.570;1.448;2023-07-13T12:56:59;2.70;;;1.15;;
14847;SDS011;7516;43.570;1.448;2023-07-13T12:59:30;2.40;;;1.02;;
14847;SDS011;7516;43.570;1.448;2023-07-13T13:02:01;2.05;;;1.13;;
14847;SDS011;7516;43.570;1.448;2023-07-13T13:04:38;4.38;;;1.10;;
14847;SDS011;7516;43.570;1.448;2023-07-13T13:07:08;3.42;;;1.10;;
14847;SDS011;7516;43.570;1.448;2023-07-13T13:09:38;1.45;;;1.02;;
14847;SDS011;7516;43.570;1.448;2023-07-13T13:12:06;2.45;;;1.10;;
14847;SDS011;7516;43.570;1.448;2023-07-13T13:14:35;2.67;;;0.88;;
14847;SDS011;7516;43.570;1.448;2023-07-13T13:17:04;2.95;;;1.27;;
14847;SDS011;7516;43.570;1.448;2023-07-13T13:19:41;2.65;;;1.20;;
14847;SDS011;7516;43.570;1.448;2023-07-13T13:22:09;2.35;;;1.23;;
14847;SDS011;7516;43.570;1.448;2023-07-13T13:24:38;2.50;;;1.20;;
14847;SDS011;7516;43.570;1.448;2023-07-13T13:27:09;2.25;;;1.50;;
14847;SDS011;7516;43.570;1.448;2023-07-13T13:29:41;1.98;;;1.13;;
14847;SDS011;7516;43.570;1.448;2023-07-13T13:32:09;2.58;;;1.20;;
14847;SDS011;7516;43.570;1.448;2023-07-13T13:34:39;2.00;;;1.20;;
14847;SDS011;7516;43.570;1.448;2023-07-13T13:37:10;3.00;;;1.00;;
14847;SDS011;7516;43.570;1.448;2023-07-13T13:39:47;3.55;;;1.33;;
14847;SDS011;7516;43.570;1.448;2023-07-13T13:42:15;2.63;;;1.10;;
14847;SDS011;7516;43.570;1.448;2023-07-13T13:44:44;2.63;;;1.10;;
14847;SDS011;7516;43.570;1.448;2023-07-13T13:47:17;3.40;;;1.23;;
14847;SDS011;7516;43.570;1.448;2023-07-13T13:49:56;1.42;;;0.80;;
14847;SDS011;7516;43.570;1.448;2023-07-13T13:52:25;1.63;;;1.10;;
14847;SDS011;7516;43.570;1.448;2023-07-13T13:54:54;3.10;;;1.05;;
14847;SDS011;7516;43.570;1.448;2023-07-13T13:57:22;2.28;;;1.00;;
14847;SDS011;7516;43.570;1.448;2023-07-13T13:59:51;2.15;;;1.08;;
14847;SDS011;7516;43.570;1.448;2023-07-13T14:02:21;1.83;;;0.82;;
14847;SDS011;7516;43.570;1.448;2023-07-13T14:04:50;2.08;;;0.90;;
14847;SDS011;7516;43.570;1.448;2023-07-13T14:07:21;2.15;;;0.90;;
14847;SDS011;7516;43.570;1.448;2023-07-13T14:09:48;1.52;;;0.90;;
14847;SDS011;7516;43.570;1.448;2023-07-13T14:12:17;1.83;;;1.00;;
14847;SDS011;7516;43.570;1.448;2023-07-13T14:14:45;2.75;;;1.40;;
14847;SDS011;7516;43.570;1.448;2023-07-13T14:17:17;1.77;;;0.85;;
14847;SDS011;7516;43.570;1.448;2023-07-13T14:19:47;3.58;;;1.10;;
14847;SDS011;7516;43.570;1.448;2023-07-13T14:22:21;2.60;;;1.10;;
14847;SDS011;7516;43.570;1.448;2023-07-13T14:24:49;2.38;;;0.93;;
14847;SDS011;7516;43.570;1.448;2023-07-13T14:27:19;3.33;;;1.05;;
14847;SDS011;7516;43.570;1.448;2023-07-13T14:29:47;2.45;;;1.30;;
14847;SDS011;7516;43.570;1.448;2023-07-13T14:32:15;1.40;;;0.90;;
14847;SDS011;7516;43.570;1.448;2023-07-13T14:34:42;2.60;;;1.00;;
14847;SDS011;7516;43.570;1.448;2023-07-13T14:37:11;1.35;;;0.80;;
14847;SDS011;7516;43.570;1.448;2023-07-13T14:39:40;5.57;;;1.63;;
14847;SDS011;7516;43.570;1.448;2023-07-13T14:42:09;1.98;;;0.80;;
14847;SDS011;7516;43.570;1.448;2023-07-13T14:44:39;3.92;;;1.10;;
14847;SDS011;7516;43.570;1.448;2023-07-13T14:47:06;2.70;;;1.15;;
14847;SDS011;7516;43.570;1.448;2023-07-13T14:49:34;3.55;;;1.10;;
14847;SDS011;7516;43.570;1.448;2023-07-13T14:52:08;1.85;;;1.02;;
14847;SDS011;7516;43.570;1.448;2023-07-13T14:54:37;1.75;;;0.98;;
14847;SDS011;7516;43.570;1.448;2023-07-13T14:57:08;3.47;;;1.13;;
14847;SDS011;7516;43.570;1.448;2023-07-13T14:59:36;3.55;;;1.38;;
14847;SDS011;7516;43.570;1.448;2023-07-13T15:02:16;1.15;;;0.70;;
14847;SDS011;7516;43.570;1.448;2023-07-13T15:04:45;3.22;;;1.17;;
14847;SDS011;7516;43.570;1.448;2023-07-13T15:07:13;2.28;;;1.10;;
14847;SDS011;7516;43.570;1.448;2023-07-13T15:10:48;2.90;;;1.10;;
14847;SDS011;7516;43.570;1.448;2023-07-13T15:13:16;1.92;;;0.90;;
14847;SDS011;7516;43.570;1.448;2023-07-13T15:15:45;2.47;;;1.25;;
14847;SDS011;7516;43.570;1.448;2023-07-13T15:18:15;4.65;;;1.00;;
14847;SDS011;7516;43.570;1.448;2023-07-13T15:20:44;2.90;;;1.10;;
14847;SDS011;7516;43.570;1.448;2023-07-13T15:23:13;2.55;;;1.25;;
14847;SDS011;7516;43.570;1.448;2023-07-13T15:25:42;1.95;;;1.13;;